sensor_id;sensor_type;location;lat;lon;timestamp;pressure;altitude;pressure_sealevel;temperature;humidity
22018;BME280;11173;51.050;7.108;2023-04-25T00:05:36;98895.91;;;3.91;64.03
22018;BME280;11173;51.050;7.108;2023-04-25T00:15:37;98884.47;;;3.71;64.25
22018;BME280;11173;51.050;7.108;2023-04-25T00:25:38;98891.94;;;3.56;64.44
22018;BME280;11173;51.050;7.108;2023-04-25T00:35:39;98902.16;;;3.45;64.98
22018;BME280;11173;51.050;7.108;2023-04-25T00:45:39;98899.38;;;3.30;65.44
22018;BME280;11173;51.050;7.108;2023-04-25T00:55:40;98895.44;;;3.35;66.25
22018;BME280;11173;51.050;7.108;2023-04-25T01:05:41;98895.09;;;3.62;67.04
22018;BME280;11173;51.050;7.108;2023-04-25T01:15:42;98891.97;;;3.99;66.29
22018;BME280;11173;51.050;7.108;2023-04-25T01:25:42;98885.25;;;4.14;65.77
22018;BME280;11173;51.050;7.108;2023-04-25T01:35:43;98884.88;;;4.23;66.05
22018;BME280;11173;51.050;7.108;2023-04-25T01:45:43;98900.59;;;4.37;66.44
22018;BME280;11173;51.050;7.108;2023-04-25T01:55:44;98910.41;;;4.56;66.12
22018;BME280;11173;51.050;7.108;2023-04-25T02:05:44;98911.94;;;4.64;66.24
22018;BME280;11173;51.050;7.108;2023-04-25T02:15:44;98892.25;;;4.62;65.55
22018;BME280;11173;51.050;7.108;2023-04-25T02:25:45;98909.22;;;4.53;65.31
22018;BME280;11173;51.050;7.108;2023-04-25T02:35:45;98918.31;;;4.36;66.16
22018;BME280;11173;51.050;7.108;2023-04-25T02:45:45;98923.84;;;4.40;67.28
22018;BME280;11173;51.050;7.108;2023-04-25T02:55:46;98908.44;;;4.53;66.95
22018;BME280;11173;51.050;7.108;2023-04-25T03:05:47;98897.38;;;4.56;66.50
22018;BME280;11173;51.050;7.108;2023-04-25T03:15:47;98911.13;;;4.74;66.39
22018;BME280;11173;51.050;7.108;2023-04-25T03:25:48;98911.13;;;4.74;66.19
22018;BME280;11173;51.050;7.108;2023-04-25T03:35:48;98905.66;;;4.60;66.41
22018;BME280;11173;51.050;7.108;2023-04-25T03:45:50;98911.56;;;4.58;66.58
22018;BME280;11173;51.050;7.108;2023-04-25T03:55:51;98916.69;;;4.60;66.69
22018;BME280;11173;51.050;7.108;2023-04-25T04:05:51;98904.91;;;4.45;66.87
22018;BME280;11173;51.050;7.108;2023-04-25T04:15:52;98933.63;;;4.62;67.07
22018;BME280;11173;51.050;7.108;2023-04-25T04:25:53;98933.22;;;4.71;67.19
22018;BME280;11173;51.050;7.108;2023-04-25T04:35:54;98945.78;;;4.90;67.00
22018;BME280;11173;51.050;7.108;2023-04-25T04:45:55;98954.06;;;4.93;67.27
22018;BME280;11173;51.050;7.108;2023-04-25T04:55:59;98969.00;;;5.07;67.30
22018;BME280;11173;51.050;7.108;2023-04-25T05:05:59;98963.03;;;5.15;67.07
22018;BME280;11173;51.050;7.108;2023-04-25T05:15:59;98995.28;;;5.36;66.67
22018;BME280;11173;51.050;7.108;2023-04-25T05:26:00;98999.69;;;5.27;66.26
22018;BME280;11173;51.050;7.108;2023-04-25T05:36:00;99021.03;;;5.15;67.50
22018;BME280;11173;51.050;7.108;2023-04-25T05:46:01;99028.44;;;5.44;68.25
22018;BME280;11173;51.050;7.108;2023-04-25T05:56:01;99041.88;;;6.15;69.58
22018;BME280;11173;51.050;7.108;2023-04-25T06:06:03;99046.44;;;6.89;67.31
22018;BME280;11173;51.050;7.108;2023-04-25T06:16:03;99062.25;;;7.26;65.92
22018;BME280;11173;51.050;7.108;2023-04-25T06:26:04;99064.88;;;7.44;64.79
22018;BME280;11173;51.050;7.108;2023-04-25T06:36:05;99058.84;;;7.53;64.81
22018;BME280;11173;51.050;7.108;2023-04-25T06:46:05;99067.81;;;7.64;65.01
22018;BME280;11173;51.050;7.108;2023-04-25T06:56:06;99069.38;;;7.65;63.86
22018;BME280;11173;51.050;7.108;2023-04-25T07:06:06;99085.84;;;7.80;64.25
22018;BME280;11173;51.050;7.108;2023-04-25T07:16:07;99081.31;;;7.93;64.09
22018;BME280;11173;51.050;7.108;2023-04-25T07:26:07;99103.47;;;8.24;63.28
22018;BME280;11173;51.050;7.108;2023-04-25T07:36:08;99106.78;;;8.15;60.74
22018;BME280;11173;51.050;7.108;2023-04-25T07:46:08;99115.03;;;7.88;61.27
22018;BME280;11173;51.050;7.108;2023-04-25T07:56:09;99108.41;;;8.12;62.90
22018;BME280;11173;51.050;7.108;2023-04-25T08:06:09;99126.53;;;8.75;62.19
22018;BME280;11173;51.050;7.108;2023-04-25T08:16:09;99143.47;;;9.31;60.11
22018;BME280;11173;51.050;7.108;2023-04-25T08:26:10;99165.03;;;9.24;57.82
22018;BME280;11173;51.050;7.108;2023-04-25T08:36:10;99182.16;;;8.68;57.65
22018;BME280;11173;51.050;7.108;2023-04-25T08:46:11;99196.25;;;8.23;58.37
22018;BME280;11173;51.050;7.108;2023-04-25T08:56:15;99206.69;;;8.11;58.13
22018;BME280;11173;51.050;7.108;2023-04-25T09:06:17;99221.25;;;8.23;57.43
22018;BME280;11173;51.050;7.108;2023-04-25T09:16:18;99228.81;;;8.49;60.67
22018;BME280;11173;51.050;7.108;2023-04-25T09:26:21;99235.44;;;8.90;55.10
22018;BME280;11173;51.050;7.108;2023-04-25T09:36:26;99244.81;;;9.00;57.74
22018;BME280;11173;51.050;7.108;2023-04-25T09:46:33;99256.75;;;9.24;56.90
22018;BME280;11173;51.050;7.108;2023-04-25T09:56:36;99260.56;;;9.33;54.61
22018;BME280;11173;51.050;7.108;2023-04-25T10:06:37;99253.88;;;9.54;56.01
22018;BME280;11173;51.050;7.108;2023-04-25T10:16:40;99280.50;;;9.99;52.12
22018;BME280;11173;51.050;7.108;2023-04-25T10:26:42;99283.81;;;10.14;50.87
22018;BME280;11173;51.050;7.108;2023-04-25T10:36:49;99298.63;;;10.31;47.62
22018;BME280;11173;51.050;7.108;2023-04-25T10:46:50;99311.22;;;10.15;50.60
22018;BME280;11173;51.050;7.108;2023-04-25T10:56:50;99309.00;;;10.07;50.04
22018;BME280;11173;51.050;7.108;2023-04-25T11:17:10;99305.69;;;10.75;50.71
22018;BME280;11173;51.050;7.108;2023-04-25T11:27:12;99326.59;;;10.84;47.50
22018;BME280;11173;51.050;7.108;2023-04-25T11:37:13;99303.31;;;10.94;48.15
22018;BME280;11173;51.050;7.108;2023-04-25T11:47:14;99301.63;;;11.17;46.44
22018;BME280;11173;51.050;7.108;2023-04-25T11:57:14;99303.28;;;11.14;41.80
22018;BME280;11173;51.050;7.108;2023-04-25T12:07:14;99299.09;;;10.86;44.66
22018;BME280;11173;51.050;7.108;2023-04-25T12:17:16;99303.81;;;10.89;43.29
22018;BME280;11173;51.050;7.108;2023-04-25T12:27:17;99321.00;;;11.04;42.85
22018;BME280;11173;51.050;7.108;2023-04-25T12:37:18;99323.16;;;11.16;44.42
22018;BME280;11173;51.050;7.108;2023-04-25T12:47:19;99356.88;;;11.02;43.39
22018;BME280;11173;51.050;7.108;2023-04-25T12:57:20;99355.44;;;10.10;43.03
22018;BME280;11173;51.050;7.108;2023-04-25T13:07:20;99371.13;;;9.49;45.60
22018;BME280;11173;51.050;7.108;2023-04-25T13:17:21;99392.81;;;9.04;47.41
22018;BME280;11173;51.050;7.108;2023-04-25T13:27:21;99422.72;;;8.54;49.75
22018;BME280;11173;51.050;7.108;2023-04-25T13:37:22;99404.91;;;7.54;54.17
22018;BME280;11173;51.050;7.108;2023-04-25T13:47:25;99396.03;;;7.11;56.42
22018;BME280;11173;51.050;7.108;2023-04-25T13:57:26;99389.03;;;6.74;56.38
22018;BME280;11173;51.050;7.108;2023-04-25T14:07:27;99377.41;;;7.15;59.35
22018;BME280;11173;51.050;7.108;2023-04-25T14:17:28;99382.03;;;7.92;57.54
22018;BME280;11173;51.050;7.108;2023-04-25T14:27:28;99392.59;;;8.49;57.26
22018;BME280;11173;51.050;7.108;2023-04-25T14:37:28;99389.56;;;9.09;54.52
22018;BME280;11173;51.050;7.108;2023-04-25T14:47:29;99418.78;;;9.79;50.80
22018;BME280;11173;51.050;7.108;2023-04-25T14:57:31;99419.72;;;9.41;51.55
22018;BME280;11173;51.050;7.108;2023-04-25T15:07:32;99414.44;;;8.85;51.73
22018;BME280;11173;51.050;7.108;2023-04-25T15:17:32;99421.56;;;8.86;51.50
22018;BME280;11173;51.050;7.108;2023-04-25T15:27:32;99424.34;;;8.86;53.91
22018;BME280;11173;51.050;7.108;2023-04-25T15:37:34;99414.81;;;8.87;55.38
22018;BME280;11173;51.050;7.108;2023-04-25T15:47:36;99418.47;;;9.15;54.52
22018;BME280;11173;51.050;7.108;2023-04-25T15:57:37;99419.72;;;9.10;54.41
22018;BME280;11173;51.050;7.108;2023-04-25T16:07:42;99421.16;;;9.22;56.70
22018;BME280;11173;51.050;7.108;2023-04-25T16:17:42;99419.38;;;9.35;53.74
22018;BME280;11173;51.050;7.108;2023-04-25T16:27:43;99433.69;;;9.34;52.75
22018;BME280;11173;51.050;7.108;2023-04-25T16:37:43;99430.50;;;9.35;52.07
22018;BME280;11173;51.050;7.108;2023-04-25T16:47:44;99441.91;;;9.14;50.70
22018;BME280;11173;51.050;7.108;2023-04-25T16:57:45;99435.47;;;8.86;54.85
22018;BME280;11173;51.050;7.108;2023-04-25T17:07:46;99446.72;;;8.72;53.98
22018;BME280;11173;51.050;7.108;2023-04-25T17:17:46;99456.69;;;8.66;53.79
22018;BME280;11173;51.050;7.108;2023-04-25T17:27:46;99456.94;;;8.41;52.47
22018;BME280;11173;51.050;7.108;2023-04-25T17:37:47;99466.66;;;8.60;52.86
22018;BME280;11173;51.050;7.108;2023-04-25T17:47:47;99467.59;;;8.87;51.48
22018;BME280;11173;51.050;7.108;2023-04-25T17:57:48;99479.47;;;8.88;52.31
22018;BME280;11173;51.050;7.108;2023-04-25T18:07:48;99492.47;;;9.02;51.63
22018;BME280;11173;51.050;7.108;2023-04-25T18:17:49;99507.13;;;8.61;51.33
22018;BME280;11173;51.050;7.108;2023-04-25T18:27:49;99523.00;;;8.08;52.07
22018;BME280;11173;51.050;7.108;2023-04-25T18:37:50;99528.44;;;7.59;51.52
22018;BME280;11173;51.050;7.108;2023-04-25T18:47:50;99547.19;;;7.05;52.13
22018;BME280;11173;51.050;7.108;2023-04-25T18:57:51;99550.81;;;6.69;53.39
22018;BME280;11173;51.050;7.108;2023-04-25T19:07:51;99555.97;;;6.53;53.54
22018;BME280;11173;51.050;7.108;2023-04-25T19:17:52;99571.72;;;6.34;53.61
22018;BME280;11173;51.050;7.108;2023-04-25T19:27:52;99578.78;;;5.96;53.97
22018;BME280;11173;51.050;7.108;2023-04-25T19:37:53;99592.13;;;5.69;54.35
22018;BME280;11173;51.050;7.108;2023-04-25T19:47:54;99597.84;;;5.38;54.47
22018;BME280;11173;51.050;7.108;2023-04-25T19:57:55;99587.88;;;5.16;55.30
22018;BME280;11173;51.050;7.108;2023-04-25T20:07:55;99608.22;;;4.90;55.62
22018;BME280;11173;51.050;7.108;2023-04-25T20:17:56;99612.78;;;4.68;55.81
22018;BME280;11173;51.050;7.108;2023-04-25T20:27:56;99622.03;;;4.45;56.34
22018;BME280;11173;51.050;7.108;2023-04-25T20:37:57;99619.06;;;4.24;56.36
22018;BME280;11173;51.050;7.108;2023-04-25T20:48:00;99617.22;;;3.97;56.84
22018;BME280;11173;51.050;7.108;2023-04-25T20:58:03;99637.19;;;3.91;57.22
22018;BME280;11173;51.050;7.108;2023-04-25T21:08:04;99634.31;;;3.80;57.58
22018;BME280;11173;51.050;7.108;2023-04-25T21:18:05;99641.63;;;3.65;57.72
22018;BME280;11173;51.050;7.108;2023-04-25T21:28:06;99642.16;;;3.48;57.67
22018;BME280;11173;51.050;7.108;2023-04-25T21:38:07;99648.69;;;3.36;58.08
22018;BME280;11173;51.050;7.108;2023-04-25T21:48:07;99653.56;;;3.20;58.01
22018;BME280;11173;51.050;7.108;2023-04-25T21:58:08;99653.56;;;3.20;58.01
22018;BME280;11173;51.050;7.108;2023-04-25T22:08:08;99672.72;;;2.89;58.71
22018;BME280;11173;51.050;7.108;2023-04-25T22:18:08;99675.91;;;2.68;58.42
22018;BME280;11173;51.050;7.108;2023-04-25T22:28:09;99685.88;;;2.53;58.95
22018;BME280;11173;51.050;7.108;2023-04-25T22:38:11;67552.56;;;-149.45;100.00
22018;BME280;11173;51.050;7.108;2023-04-25T22:48:12;67552.56;;;-149.45;100.00
22018;BME280;11173;51.050;7.108;2023-04-25T22:58:12;67552.56;;;-149.45;100.00
22018;BME280;11173;51.050;7.108;2023-04-25T23:08:13;67552.56;;;-149.45;100.00
22018;BME280;11173;51.050;7.108;2023-04-25T23:18:16;67552.56;;;-149.45;100.00
22018;BME280;11173;51.050;7.108;2023-04-25T23:28:17;67552.56;;;-149.45;100.00
22018;BME280;11173;51.050;7.108;2023-04-25T23:38:17;67552.56;;;-149.45;100.00
22018;BME280;11173;51.050;7.108;2023-04-25T23:48:18;67552.56;;;-149.45;100.00
22018;BME280;11173;51.050;7.108;2023-04-25T23:58:18;67552.56;;;-149.45;100.00
